| time (UTC) | temp F | wind direction | speed MPH | gust MPH | rain 1hr in | rain 24hr in | rain mn in | humidity % | barometer mb |
| 20260509123738 | 47 | 90 | 0.0 | 1.0 | 0.05 | 0.24 | 0.24 | 96 | 1011.6 |
| 20260509123235 | 46 | 80 | 1.0 | 4.0 | 0.05 | 0.24 | 0.24 | 96 | 1011.5 |
| 20260509122730 | 46 | 108 | 3.0 | 6.0 | 0.07 | 0.23 | 0.23 | 96 | 1011.7 |
| 20260509122227 | 46 | 32 | 0.0 | 3.0 | 0.07 | 0.23 | 0.23 | 96 | 1011.5 |
| 20260509121724 | 46 | 188 | 0.0 | 1.0 | 0.05 | 0.22 | 0.22 | 96 | 1011.9 |
| 20260509121222 | 46 | 126 | 1.0 | 4.0 | 0.05 | 0.22 | 0.22 | 96 | 1011.6 |
| 20260509120720 | 46 | 94 | 2.0 | 6.0 | 0.07 | 0.21 | 0.21 | 96 | 1011.7 |
| 20260509120217 | 46 | 123 | 2.0 | 3.0 | 0.07 | 0.21 | 0.21 | 96 | 1011.7 |
| 20260509115715 | 46 | 153 | 2.0 | 2.0 | 0.05 | 0.20 | 0.20 | 96 | 1011.9 |
| 20260509115212 | 46 | 176 | 0.0 | 2.0 | 0.12 | 0.20 | 0.20 | 96 | 1011.8 |
| 20260509114710 | 46 | 128 | 1.0 | 2.0 | 0.12 | 0.19 | 0.19 | 96 | 1012.0 |
| 20260509114209 | 46 | 127 | 1.0 | 3.0 | 0.12 | 0.18 | 0.18 | 96 | 1012.1 |
| 20260509113707 | 46 | 179 | 2.0 | 6.0 | 0.12 | 0.17 | 0.17 | 96 | 1012.0 |
| 20260509113204 | 46 | 103 | 0.0 | 2.0 | 0.07 | 0.15 | 0.15 | 96 | 1011.9 |
| 20260509112700 | 46 | 51 | 3.0 | 3.0 | 0.12 | 0.15 | 0.15 | 95 | 1012.0 |
| 20260509112157 | 46 | 154 | 2.0 | 2.0 | 0.12 | 0.14 | 0.14 | 95 | 1011.8 |
| 20260509111655 | 46 | 75 | 2.0 | 7.0 | 0.14 | 0.13 | 0.13 | 95 | 1011.7 |
| 20260509111151 | 46 | 95 | 2.0 | 3.0 | 0.07 | 0.12 | 0.12 | 95 | 1012.0 |
| 20260509110649 | 46 | 24 | 3.0 | 4.0 | 0.05 | 0.11 | 0.11 | 95 | 1011.8 |
| 20260509110145 | 46 | 45 | 0.0 | 3.0 | 0.12 | 0.11 | 0.11 | 95 | 1011.8 |
| 20260509105644 | 46 | 21 | 0.0 | 0.0 | 0.12 | 0.10 | 0.10 | 95 | 1011.8 |
| 20260509105141 | 46 | 0 | 1.0 | 3.0 | 0.12 | 0.09 | 0.09 | 95 | 1011.8 |
| 20260509104638 | 46 | 146 | 1.0 | 1.0 | 0.12 | 0.07 | 0.07 | 95 | 1011.6 |
| 20260509104134 | 46 | 114 | 1.0 | 2.0 | 0.12 | 0.06 | 0.06 | 95 | 1011.6 |
| 20260509103632 | 46 | 71 | 3.0 | 3.0 | 0.12 | 0.05 | 0.05 | 95 | 1011.6 |
| 20260509103130 | 46 | 39 | 1.0 | 2.0 | 0.07 | 0.04 | 0.04 | 95 | 1011.5 |
| 20260509102627 | 46 | 89 | 0.0 | 1.0 | 0.05 | 0.03 | 0.03 | 95 | 1011.8 |
| 20260509102124 | 46 | 85 | 2.0 | 2.0 | 0.05 | 0.03 | 0.03 | 95 | 1011.7 |
| 20260509101621 | 46 | 158 | 1.0 | 2.0 | 0.00 | 0.02 | 0.02 | 95 | 1011.7 |
| 20260509101117 | 46 | 114 | 0.0 | 2.0 | 0.00 | 0.02 | 0.02 | 95 | 1011.6 |
| 20260509100614 | 46 | 75 | 2.0 | 3.0 | 0.00 | 0.02 | 0.02 | 95 | 1011.7 |
| 20260509100112 | 46 | 106 | 2.0 | 3.0 | 0.00 | 0.02 | 0.02 | 95 | 1011.7 |
| 20260509095608 | 45 | 127 | 1.0 | 2.0 | 0.00 | 0.02 | 0.02 | 95 | 1011.6 |
| 20260509095106 | 45 | 204 | 1.0 | 2.0 | 0.07 | 0.02 | 0.02 | 95 | 1011.7 |
| 20260509094602 | 45 | 249 | 0.0 | 2.0 | 0.00 | 0.01 | 0.01 | 95 | 1011.6 |
| 20260509094059 | 45 | 142 | 0.0 | 1.0 | 0.00 | 0.01 | 0.01 | 95 | 1011.9 |
| 20260509093558 | 45 | 202 | 0.0 | 1.0 | 0.00 | 0.01 | 0.01 | 95 | 1011.6 |
| 20260509093055 | 45 | 90 | 0.0 | 1.0 | 0.00 | 0.01 | 0.01 | 95 | 1011.6 |
| 20260509092552 | 45 | 79 | 0.0 | 0.0 | 0.00 | 0.01 | 0.01 | 95 | 1011.5 |
| 20260509092051 | 45 | 106 | 2.0 | 2.0 | 0.00 | 0.01 | 0.01 | 95 | 1011.6 |
| 20260509091548 | 45 | 102 | 1.0 | 2.0 | 0.00 | 0.01 | 0.01 | 95 | 1011.7 |
| 20260509091044 | 45 | 47 | 0.0 | 2.0 | 0.00 | 0.01 | 0.01 | 95 | 1011.6 |
| 20260509090542 | 45 | 87 | 0.0 | 1.0 | 0.00 | 0.01 | 0.01 | 95 | 1011.6 |
| 20260509090040 | 45 | 91 | 0.0 | 1.0 | 0.00 | 0.01 | 0.01 | 95 | 1011.6 |
| 20260509085536 | 45 | 122 | 0.0 | 2.0 | 0.00 | 0.01 | 0.01 | 95 | 1011.7 |
| 20260509085032 | 45 | 84 | 2.0 | 4.0 | 0.00 | 0.01 | 0.01 | 95 | 1011.7 |
| 20260509084530 | 45 | 126 | 1.0 | 3.0 | 0.00 | 0.01 | 0.01 | 95 | 1011.5 |
| 20260509084027 | 45 | 77 | 1.0 | 2.0 | 0.00 | 0.01 | 0.01 | 96 | 1011.7 |
| 20260509083524 | 45 | 93 | 1.0 | 3.0 | 0.00 | 0.01 | 0.01 | 96 | 1011.8 |
| 20260509083020 | 44 | 141 | 2.0 | 2.0 | 0.00 | 0.01 | 0.01 | 96 | 1012.0 |
| 20260509082518 | 44 | 121 | 1.0 | 2.0 | 0.00 | 0.01 | 0.01 | 96 | 1011.9 |
| 20260509082015 | 42 | 39 | 2.0 | 3.0 | 0.00 | 0.01 | 0.01 | 96 | 1011.8 |
| 20260509081512 | 42 | 29 | 1.0 | 2.0 | 0.00 | 0.01 | 0.01 | 95 | 1011.8 |
| 20260509081009 | 42 | 141 | 0.0 | 0.0 | 0.00 | 0.01 | 0.01 | 95 | 1011.8 |
| 20260509080507 | 42 | 144 | 0.0 | 1.0 | 0.00 | 0.01 | 0.01 | 95 | 1011.6 |
| 20260509080005 | 41 | 144 | 0.0 | 1.0 | 0.00 | 0.01 | 0.01 | 95 | 1011.8 |
| 20260509075502 | 41 | 8 | 0.0 | 2.0 | 0.00 | 0.01 | 0.01 | 95 | 1011.9 |
| 20260509074959 | 41 | 204 | 2.0 | 2.0 | 0.00 | 0.01 | 0.01 | 95 | 1011.8 |
| 20260509074457 | 41 | 160 | 0.0 | 0.0 | 0.00 | 0.01 | 0.01 | 95 | 1012.0 |
| 20260509073953 | 41 | 160 | 0.0 | 0.0 | 0.00 | 0.01 | 0.01 | 95 | 1012.1 |
| 20260509073449 | 42 | 160 | 0.0 | 1.0 | 0.00 | 0.01 | 0.01 | 94 | 1012.1 |
| 20260509072946 | 41 | 147 | 0.0 | 1.0 | 0.00 | 0.01 | 0.01 | 94 | 1012.0 |
| 20260509072443 | 41 | 13 | 0.0 | 1.0 | 0.00 | 0.01 | 0.01 | 94 | 1012.0 |
| 20260509071940 | 41 | 118 | 0.0 | 1.0 | 0.07 | 0.01 | 0.01 | 94 | 1012.1 |
| 20260509071436 | 41 | 118 | 0.0 | 1.0 | 0.07 | 0.01 | 0.01 | 94 | 1012.3 |
| 20260509070934 | 41 | 119 | 0.0 | 0.0 | 0.00 | 0.00 | 0.00 | 94 | 1012.2 |
| 20260509070431 | 41 | 119 | 0.0 | 0.0 | 0.00 | 0.00 | 0.00 | 93 | 1012.2 |
| 20260509065926 | 41 | 119 | 0.0 | 0.0 | 0.00 | 0.00 | 0.00 | 93 | 1012.3 |
| 20260509065422 | 41 | 119 | 0.0 | 0.0 | 0.00 | 0.00 | 0.00 | 93 | 1012.3 |
| 20260509064919 | 41 | 119 | 0.0 | 1.0 | 0.00 | 0.00 | 0.00 | 93 | 1012.4 |
| 20260509064416 | 41 | 118 | 0.0 | 1.0 | 0.00 | 0.00 | 0.00 | 93 | 1012.2 |
| 20260509063914 | 41 | 119 | 0.0 | 0.0 | 0.00 | 0.00 | 0.00 | 93 | 1012.4 |
| 20260509063410 | 41 | 119 | 0.0 | 0.0 | 0.00 | 0.00 | 0.00 | 92 | 1012.5 |
| 20260509062907 | 41 | 119 | 0.0 | 0.0 | 0.00 | 0.00 | 0.00 | 92 | 1012.4 |
| 20260509062404 | 41 | 119 | 0.0 | 1.0 | 0.00 | 0.00 | 0.00 | 92 | 1012.4 |
| 20260509061901 | 41 | 119 | 0.0 | 0.0 | 0.00 | 0.00 | 0.00 | 92 | 1012.6 |
| 20260509061359 | 41 | 118 | 0.0 | 1.0 | 0.00 | 0.00 | 0.00 | 91 | 1012.6 |
| 20260509060856 | 41 | 119 | 0.0 | 0.0 | 0.00 | 0.00 | 0.00 | 90 | 1013.0 |
| 20260509060353 | 40 | 118 | 0.0 | 1.0 | 0.00 | 0.00 | 0.00 | 90 | 1013.0 |
| 20260509055848 | 41 | 119 | 0.0 | 0.0 | 0.00 | 0.00 | 0.00 | 90 | 1012.8 |
| 20260509055344 | 40 | 119 | 0.0 | 1.0 | 0.00 | 0.00 | 0.00 | 90 | 1012.9 |
| 20260509054841 | 40 | 119 | 0.0 | 0.0 | 0.00 | 0.00 | 0.00 | 88 | 1013.0 |
| 20260509054338 | 41 | 119 | 0.0 | 0.0 | 0.00 | 0.00 | 0.00 | 87 | 1013.1 |
| 20260509053836 | 40 | 148 | 1.0 | 1.0 | 0.00 | 0.00 | 0.00 | 87 | 1013.2 |
| 20260509053333 | 40 | 105 | 1.0 | 1.0 | 0.00 | 0.00 | 0.00 | 88 | 1013.2 |
| 20260509052831 | 40 | 101 | 0.0 | 0.0 | 0.00 | 0.00 | 0.00 | 88 | 1013.1 |
| 20260509052329 | 40 | 100 | 0.0 | 1.0 | 0.00 | 0.00 | 0.00 | 88 | 1013.2 |
| 20260509051826 | 40 | 100 | 0.0 | 0.0 | 0.00 | 0.00 | 0.00 | 88 | 1013.2 |
| 20260509051324 | 39 | 100 | 0.0 | 0.0 | 0.00 | 0.00 | 0.00 | 87 | 1013.2 |
| 20260509050820 | 39 | 111 | 1.0 | 1.0 | 0.00 | 0.00 | 0.00 | 87 | 1013.1 |
| 20260509050317 | 39 | 112 | 0.0 | 1.0 | 0.00 | 0.00 | 0.00 | 87 | 1013.0 |
| 20260509045814 | 39 | 113 | 1.0 | 1.0 | 0.00 | 0.00 | 0.00 | 87 | 1013.3 |
| 20260509045311 | 40 | 112 | 0.0 | 0.0 | 0.00 | 0.00 | 0.00 | 87 | 1013.0 |
| 20260509044808 | 40 | 112 | 0.0 | 1.0 | 0.00 | 0.00 | 0.00 | 86 | 1013.0 |
| 20260509044306 | 39 | 96 | 0.0 | 1.0 | 0.00 | 0.00 | 0.00 | 86 | 1013.0 |
| 20260509043802 | 39 | 117 | 1.0 | 2.0 | 0.00 | 0.00 | 0.00 | 85 | 1013.1 |
| 20260509043258 | 39 | 115 | 1.0 | 1.0 | 0.00 | 0.00 | 0.00 | 84 | 1013.2 |
| 20260509042754 | 39 | 111 | 0.0 | 1.0 | 0.00 | 0.00 | 0.00 | 85 | 1013.3 |
| 20260509042250 | 38 | 89 | 0.0 | 1.0 | 0.00 | 0.00 | 0.00 | 86 | 1013.1 |
| 20260509041747 | 38 | 32 | 1.0 | 2.0 | 0.00 | 0.00 | 0.00 | 86 | 1012.9 |
| 20260509041244 | 38 | 110 | 1.0 | 1.0 | 0.00 | 0.00 | 0.00 | 87 | 1013.1 |
| 20260509040743 | 39 | 116 | 1.0 | 2.0 | 0.00 | 0.00 | 0.00 | 86 | 1013.1 |
| 20260509040239 | 39 | 126 | 1.0 | 1.0 | 0.00 | 0.00 | 0.00 | 88 | 1013.3 |
| 20260509035736 | 39 | 129 | 0.0 | 1.0 | 0.00 | 0.01 | 0.01 | 87 | 1013.2 |
| 20260509035233 | 39 | 118 | 0.0 | 1.0 | 0.00 | 0.01 | 0.01 | 87 | 1013.4 |
| 20260509034730 | 38 | 117 | 1.0 | 2.0 | 0.00 | 0.01 | 0.01 | 88 | 1013.5 |
| 20260509034228 | 38 | 123 | 0.0 | 2.0 | 0.00 | 0.01 | 0.01 | 88 | 1013.3 |
| 20260509033725 | 38 | 122 | 0.0 | 0.0 | 0.00 | 0.01 | 0.01 | 89 | 1013.1 |
| 20260509033222 | 38 | 122 | 0.0 | 1.0 | 0.00 | 0.01 | 0.01 | 88 | 1013.3 |
| 20260509032719 | 38 | 121 | 1.0 | 1.0 | 0.00 | 0.01 | 0.01 | 87 | 1013.4 |
| 20260509032216 | 38 | 98 | 0.0 | 1.0 | 0.00 | 0.01 | 0.01 | 87 | 1013.4 |
| 20260509031713 | 38 | 88 | 0.0 | 1.0 | 0.00 | 0.01 | 0.01 | 87 | 1013.4 |
| 20260509031211 | 38 | 108 | 0.0 | 0.0 | 0.00 | 0.01 | 0.01 | 86 | 1013.5 |
| 20260509030709 | 38 | 108 | 0.0 | 0.0 | 0.00 | 0.01 | 0.01 | 86 | 1013.5 |
| 20260509030205 | 38 | 108 | 0.0 | 0.0 | 0.00 | 0.01 | 0.01 | 85 | 1013.3 |
| 20260509025701 | 38 | 107 | 1.0 | 1.0 | 0.00 | 0.01 | 0.01 | 84 | 1013.4 |
| 20260509025158 | 39 | 108 | 0.0 | 1.0 | 0.00 | 0.01 | 0.01 | 84 | 1013.4 |
| 20260509024653 | 39 | 109 | 0.0 | 0.0 | 0.00 | 0.01 | 0.01 | 83 | 1013.5 |
| 20260509024149 | 39 | 108 | 1.0 | 1.0 | 0.00 | 0.01 | 0.01 | 83 | 1013.4 |
| 20260509023647 | 40 | 114 | 1.0 | 1.0 | 0.00 | 0.01 | 0.01 | 83 | 1013.5 |
| 20260509023144 | 40 | 58 | 1.0 | 1.0 | 0.00 | 0.01 | 0.01 | 82 | 1013.5 |
| 20260509022640 | 40 | 56 | 1.0 | 1.0 | 0.00 | 0.01 | 0.01 | 82 | 1013.7 |
| 20260509022138 | 40 | 58 | 0.0 | 1.0 | 0.00 | 0.01 | 0.01 | 84 | 1013.5 |
| 20260509021634 | 40 | 57 | 1.0 | 1.0 | 0.00 | 0.01 | 0.01 | 83 | 1013.6 |
| 20260509021132 | 41 | 59 | 1.0 | 1.0 | 0.00 | 0.01 | 0.01 | 81 | 1013.6 |
| 20260509020630 | 41 | 65 | 1.0 | 1.0 | 0.00 | 0.01 | 0.01 | 82 | 1013.5 |
| 20260509020126 | 42 | 66 | 0.0 | 1.0 | 0.00 | 0.01 | 0.01 | 82 | 1013.4 |
| 20260509015626 | 43 | 65 | 0.0 | 0.0 | 0.00 | 0.01 | 0.01 | 80 | 1013.4 |
| 20260509015123 | 43 | 66 | 0.0 | 0.0 | 0.00 | 0.01 | 0.01 | 79 | 1013.6 |
| 20260509014619 | 44 | 65 | 0.0 | 0.0 | 0.00 | 0.01 | 0.01 | 78 | 1013.4 |
| 20260509014115 | 44 | 66 | 0.0 | 1.0 | 0.00 | 0.01 | 0.01 | 77 | 1013.7 |
| 20260509013613 | 44 | 65 | 0.0 | 1.0 | 0.00 | 0.01 | 0.01 | 78 | 1013.6 |
| 20260509013108 | 45 | 67 | 0.0 | 1.0 | 0.00 | 0.01 | 0.01 | 77 | 1013.6 |
| 20260509012605 | 45 | 67 | 0.0 | 1.0 | 0.00 | 0.01 | 0.01 | 75 | 1013.5 |
| 20260509012102 | 45 | 66 | 0.0 | 0.0 | 0.00 | 0.01 | 0.01 | 76 | 1013.4 |
| 20260509011600 | 45 | 66 | 0.0 | 0.0 | 0.00 | 0.01 | 0.01 | 76 | 1013.2 |
| 20260509011056 | 45 | 66 | 0.0 | 0.0 | 0.00 | 0.01 | 0.01 | 74 | 1013.1 |
| 20260509010554 | 45 | 66 | 0.0 | 0.0 | 0.00 | 0.01 | 0.01 | 76 | 1013.2 |
| 20260509010051 | 45 | 65 | 1.0 | 2.0 | 0.00 | 0.01 | 0.01 | 73 | 1013.0 |
| 20260509005549 | 45 | 90 | 0.0 | 0.0 | 0.00 | 0.01 | 0.01 | 74 | 1013.0 |
| 20260509005044 | 45 | 90 | 0.0 | 0.0 | 0.00 | 0.01 | 0.01 | 75 | 1013.0 |
| 20260509004541 | 44 | 90 | 0.0 | 0.0 | 0.00 | 0.01 | 0.01 | 73 | 1013.0 |
| 20260509004038 | 45 | 90 | 0.0 | 1.0 | 0.00 | 0.01 | 0.01 | 74 | 1012.9 |
| 20260509003536 | 45 | 90 | 0.0 | 1.0 | 0.00 | 0.01 | 0.01 | 75 | 1012.6 |
| 20260509003033 | 45 | 90 | 0.0 | 0.0 | 0.00 | 0.01 | 0.01 | 72 | 1012.6 |
| 20260509002531 | 46 | 89 | 0.0 | 1.0 | 0.00 | 0.01 | 0.01 | 71 | 1012.6 |
| 20260509002028 | 46 | 90 | 0.0 | 1.0 | 0.00 | 0.01 | 0.01 | 68 | 1012.5 |
| 20260509001525 | 46 | 90 | 0.0 | 1.0 | 0.00 | 0.01 | 0.01 | 69 | 1012.8 |
| 20260509001021 | 46 | 90 | 0.0 | 1.0 | 0.00 | 0.01 | 0.01 | 69 | 1012.5 |
| 20260509000520 | 48 | 114 | 0.0 | 0.0 | 0.00 | 0.01 | 0.01 | 65 | 1012.5 |
| 20260509000015 | 48 | 91 | 0.0 | 1.0 | 0.00 | 0.01 | 0.01 | 64 | 1012.5 |
| 20260508235513 | 49 | 15 | 0.0 | 0.0 | 0.00 | 0.01 | 0.01 | 61 | 1012.3 |
| 20260508235009 | 50 | 16 | 0.0 | 0.0 | 0.00 | 0.01 | 0.01 | 59 | 1012.4 |
| 20260508234507 | 51 | 16 | 0.0 | 0.0 | 0.00 | 0.01 | 0.01 | 57 | 1012.3 |
| 20260508234004 | 51 | 15 | 0.0 | 0.0 | 0.00 | 0.01 | 0.01 | 55 | 1012.3 |
| 20260508233503 | 52 | 8 | 0.0 | 0.0 | 0.00 | 0.01 | 0.01 | 54 | 1012.3 |
| 20260508232959 | 52 | 8 | 0.0 | 0.0 | 0.00 | 0.01 | 0.01 | 54 | 1012.0 |
| 20260508232456 | 52 | 352 | 1.0 | 2.0 | 0.00 | 0.01 | 0.01 | 53 | 1012.0 |
| 20260508231954 | 52 | 21 | 0.0 | 2.0 | 0.00 | 0.01 | 0.01 | 54 | 1012.0 |
| 20260508231451 | 52 | 10 | 1.0 | 2.0 | 0.00 | 0.01 | 0.01 | 52 | 1012.1 |
| 20260508230948 | 53 | 18 | 2.0 | 4.0 | 0.00 | 0.01 | 0.01 | 51 | 1012.1 |
| 20260508230444 | 53 | 8 | 1.0 | 2.0 | 0.00 | 0.01 | 0.01 | 52 | 1011.9 |
| 20260508225941 | 53 | 19 | 1.0 | 1.0 | 0.00 | 0.01 | 0.01 | 50 | 1012.1 |
| 20260508225438 | 53 | 13 | 1.0 | 4.0 | 0.00 | 0.01 | 0.01 | 51 | 1012.2 |
| 20260508224935 | 53 | 37 | 2.0 | 4.0 | 0.00 | 0.01 | 0.01 | 51 | 1012.3 |
| 20260508224433 | 53 | 41 | 2.0 | 4.0 | 0.00 | 0.01 | 0.01 | 52 | 1012.3 |
| 20260508223930 | 54 | 11 | 4.0 | 4.0 | 0.00 | 0.01 | 0.01 | 49 | 1012.2 |
| 20260508223428 | 55 | 14 | 3.0 | 6.0 | 0.00 | 0.01 | 0.01 | 48 | 1012.2 |
| 20260508222925 | 55 | 11 | 1.0 | 2.0 | 0.00 | 0.01 | 0.01 | 48 | 1012.1 |
| 20260508222423 | 55 | 303 | 0.0 | 4.0 | 0.00 | 0.01 | 0.01 | 48 | 1012.0 |
| 20260508221919 | 55 | 15 | 3.0 | 7.0 | 0.00 | 0.01 | 0.01 | 45 | 1012.1 |
| 20260508221414 | 55 | 247 | 2.0 | 3.0 | 0.00 | 0.01 | 0.01 | 45 | 1011.9 |
| 20260508220911 | 54 | 267 | 2.0 | 4.0 | 0.00 | 0.01 | 0.01 | 47 | 1012.0 |
| 20260508220407 | 54 | 9 | 2.0 | 6.0 | 0.00 | 0.01 | 0.01 | 46 | 1012.0 |
| 20260508215904 | 56 | 25 | 1.0 | 6.0 | 0.00 | 0.01 | 0.01 | 45 | 1012.0 |
| 20260508215401 | 55 | 282 | 1.0 | 2.0 | 0.00 | 0.01 | 0.01 | 46 | 1012.1 |
| 20260508214857 | 53 | 275 | 2.0 | 3.0 | 0.00 | 0.01 | 0.01 | 47 | 1012.1 |
| 20260508214355 | 53 | 284 | 1.0 | 4.0 | 0.00 | 0.01 | 0.01 | 48 | 1012.2 |
| 20260508213851 | 54 | 264 | 3.0 | 7.0 | 0.00 | 0.01 | 0.01 | 49 | 1012.1 |
| 20260508213348 | 53 | 262 | 1.0 | 3.0 | 0.00 | 0.01 | 0.01 | 50 | 1012.0 |
| 20260508212844 | 54 | 29 | 2.0 | 4.0 | 0.00 | 0.01 | 0.01 | 47 | 1012.2 |
| 20260508212341 | 53 | 239 | 2.0 | 7.0 | 0.00 | 0.01 | 0.01 | 50 | 1012.2 |
| 20260508211836 | 53 | 221 | 6.0 | 9.0 | 0.00 | 0.01 | 0.01 | 48 | 1012.2 |
| 20260508211332 | 53 | 237 | 4.0 | 7.0 | 0.00 | 0.01 | 0.01 | 47 | 1012.2 |
| 20260508210830 | 52 | 258 | 5.0 | 7.0 | 0.00 | 0.01 | 0.01 | 49 | 1012.4 |
| 20260508210327 | 53 | 276 | 6.0 | 9.0 | 0.00 | 0.01 | 0.01 | 51 | 1012.4 |
| 20260508205824 | 54 | 253 | 5.0 | 8.0 | 0.00 | 0.01 | 0.01 | 48 | 1012.4 |
| 20260508205320 | 54 | 260 | 2.0 | 10.0 | 0.00 | 0.01 | 0.01 | 49 | 1012.4 |
| 20260508204816 | 53 | 220 | 3.0 | 6.0 | 0.00 | 0.01 | 0.01 | 50 | 1012.4 |
| 20260508204313 | 53 | 297 | 2.0 | 6.0 | 0.00 | 0.01 | 0.01 | 52 | 1012.5 |
| 20260508203809 | 53 | 261 | 4.0 | 8.0 | 0.00 | 0.01 | 0.01 | 50 | 1012.4 |
| 20260508203306 | 53 | 274 | 4.0 | 8.0 | 0.00 | 0.01 | 0.01 | 48 | 1012.6 |
| 20260508202801 | 53 | 245 | 1.0 | 6.0 | 0.00 | 0.01 | 0.01 | 52 | 1012.8 |
| 20260508202259 | 52 | 232 | 5.0 | 8.0 | 0.00 | 0.01 | 0.01 | 50 | 1012.4 |
| 20260508201756 | 52 | 273 | 5.0 | 9.0 | 0.00 | 0.01 | 0.01 | 52 | 1012.6 |
| 20260508201253 | 53 | 263 | 9.0 | 13.0 | 0.00 | 0.01 | 0.01 | 48 | 1012.6 |
| 20260508200749 | 53 | 264 | 2.0 | 6.0 | 0.00 | 0.01 | 0.01 | 52 | 1012.6 |
| 20260508200246 | 53 | 286 | 6.0 | 10.0 | 0.00 | 0.01 | 0.01 | 49 | 1012.8 |
| 20260508195742 | 53 | 258 | 6.0 | 7.0 | 0.00 | 0.01 | 0.01 | 51 | 1012.8 |
| 20260508195239 | 51 | 236 | 5.0 | 8.0 | 0.00 | 0.01 | 0.01 | 50 | 1012.9 |
| 20260508194735 | 52 | 209 | 4.0 | 11.0 | 0.00 | 0.01 | 0.01 | 51 | 1012.9 |
| 20260508194232 | 53 | 266 | 9.0 | 11.0 | 0.00 | 0.01 | 0.01 | 49 | 1013.1 |
| 20260508193729 | 52 | 324 | 1.0 | 13.0 | 0.00 | 0.01 | 0.01 | 49 | 1013.1 |
| 20260508193225 | 53 | 269 | 3.0 | 6.0 | 0.00 | 0.01 | 0.01 | 48 | 1013.0 |
| 20260508192722 | 53 | 250 | 4.0 | 8.0 | 0.00 | 0.01 | 0.01 | 50 | 1012.9 |
| 20260508192219 | 52 | 280 | 3.0 | 7.0 | 0.00 | 0.01 | 0.01 | 50 | 1013.1 |
| 20260508191716 | 52 | 255 | 6.0 | 8.0 | 0.00 | 0.01 | 0.01 | 55 | 1013.0 |
| 20260508191213 | 52 | 272 | 6.0 | 9.0 | 0.00 | 0.01 | 0.01 | 55 | 1013.2 |
| 20260508190710 | 52 | 263 | 7.0 | 14.0 | 0.00 | 0.01 | 0.01 | 49 | 1013.4 |
| 20260508190207 | 51 | 250 | 7.0 | 16.0 | 0.00 | 0.01 | 0.01 | 53 | 1013.4 |
| 20260508185703 | 51 | 305 | 4.0 | 9.0 | 0.00 | 0.01 | 0.01 | 51 | 1013.5 |
| 20260508185201 | 52 | 212 | 4.0 | 8.0 | 0.00 | 0.01 | 0.01 | 52 | 1013.4 |
| 20260508184658 | 51 | 274 | 6.0 | 7.0 | 0.00 | 0.01 | 0.01 | 53 | 1013.4 |
| 20260508184155 | 50 | 261 | 6.0 | 9.0 | 0.00 | 0.01 | 0.01 | 60 | 1013.6 |
| 20260508183652 | 50 | 232 | 5.0 | 8.0 | 0.00 | 0.01 | 0.01 | 57 | 1013.8 |
| 20260508183148 | 50 | 274 | 4.0 | 13.0 | 0.00 | 0.01 | 0.01 | 58 | 1013.7 |
| 20260508182644 | 50 | 301 | 7.0 | 11.0 | 0.00 | 0.01 | 0.01 | 55 | 1013.9 |
| 20260508182141 | 50 | 278 | 4.0 | 9.0 | 0.00 | 0.01 | 0.01 | 58 | 1013.9 |
| 20260508181636 | 49 | 264 | 4.0 | 13.0 | 0.00 | 0.01 | 0.01 | 61 | 1013.9 |
| 20260508181134 | 48 | 237 | 10.0 | 11.0 | 0.00 | 0.01 | 0.01 | 57 | 1014.1 |
| 20260508180630 | 48 | 304 | 2.0 | 8.0 | 0.00 | 0.01 | 0.01 | 60 | 1014.0 |
| 20260508180127 | 47 | 256 | 10.0 | 11.0 | 0.00 | 0.01 | 0.01 | 61 | 1014.0 |
| 20260508175624 | 48 | 246 | 11.0 | 15.0 | 0.00 | 0.01 | 0.01 | 56 | 1014.2 |
| 20260508175121 | 48 | 292 | 7.0 | 10.0 | 0.00 | 0.01 | 0.01 | 61 | 1014.3 |
| 20260508174618 | 48 | 256 | 4.0 | 8.0 | 0.00 | 0.01 | 0.01 | 62 | 1014.0 |
| 20260508174115 | 46 | 265 | 5.0 | 10.0 | 0.00 | 0.01 | 0.01 | 63 | 1014.2 |
| 20260508173612 | 46 | 296 | 4.0 | 17.0 | 0.00 | 0.01 | 0.01 | 64 | 1014.1 |
| 20260508173108 | 46 | 288 | 4.0 | 13.0 | 0.00 | 0.01 | 0.01 | 64 | 1014.1 |
| 20260508172605 | 46 | 278 | 4.0 | 8.0 | 0.00 | 0.01 | 0.01 | 64 | 1014.1 |
| 20260508172102 | 48 | 245 | 6.0 | 9.0 | 0.00 | 0.01 | 0.01 | 66 | 1014.4 |
| 20260508171558 | 46 | 249 | 4.0 | 7.0 | 0.00 | 0.01 | 0.01 | 68 | 1014.1 |
| 20260508171055 | 46 | 254 | 5.0 | 7.0 | 0.00 | 0.01 | 0.01 | 71 | 1014.1 |
| 20260508170552 | 46 | 266 | 6.0 | 10.0 | 0.00 | 0.01 | 0.01 | 68 | 1014.5 |
| 20260508170049 | 47 | 216 | 1.0 | 6.0 | 0.00 | 0.01 | 0.01 | 68 | 1014.4 |
| 20260508165546 | 46 | 226 | 3.0 | 7.0 | 0.00 | 0.01 | 0.01 | 71 | 1014.3 |
| 20260508165043 | 46 | 287 | 4.0 | 8.0 | 0.00 | 0.01 | 0.01 | 70 | 1014.5 |
| 20260508164540 | 45 | 289 | 4.0 | 10.0 | 0.00 | 0.01 | 0.01 | 73 | 1014.4 |
| 20260508164037 | 45 | 299 | 8.0 | 11.0 | 0.00 | 0.01 | 0.01 | 71 | 1014.3 |
| 20260508163534 | 45 | 276 | 4.0 | 8.0 | 0.00 | 0.01 | 0.01 | 73 | 1014.6 |
| 20260508163030 | 44 | 254 | 6.0 | 8.0 | 0.00 | 0.01 | 0.01 | 73 | 1014.4 |
| 20260508162527 | 44 | 17 | 2.0 | 4.0 | 0.00 | 0.01 | 0.01 | 74 | 1014.4 |
| 20260508162025 | 45 | 33 | 2.0 | 3.0 | 0.00 | 0.01 | 0.01 | 74 | 1014.5 |
| 20260508161521 | 45 | 164 | 0.0 | 2.0 | 0.00 | 0.01 | 0.01 | 74 | 1014.4 |
| 20260508161018 | 44 | 11 | 4.0 | 6.0 | 0.00 | 0.01 | 0.01 | 78 | 1014.5 |
| 20260508160517 | 44 | 222 | 4.0 | 6.0 | 0.00 | 0.01 | 0.01 | 78 | 1014.5 |
| 20260508160014 | 44 | 263 | 1.0 | 4.0 | 0.00 | 0.01 | 0.01 | 80 | 1014.5 |
| 20260508155511 | 43 | 260 | 1.0 | 4.0 | 0.00 | 0.01 | 0.01 | 84 | 1014.5 |
| 20260508155008 | 42 | 261 | 2.0 | 3.0 | 0.00 | 0.01 | 0.01 | 81 | 1014.6 |
| 20260508154505 | 41 | 250 | 2.0 | 3.0 | 0.00 | 0.01 | 0.01 | 85 | 1014.6 |
| 20260508154001 | 40 | 270 | 3.0 | 4.0 | 0.00 | 0.01 | 0.01 | 85 | 1014.7 |
| 20260508153458 | 40 | 242 | 3.0 | 3.0 | 0.00 | 0.01 | 0.01 | 86 | 1014.6 |
| 20260508152955 | 40 | 270 | 3.0 | 4.0 | 0.00 | 0.01 | 0.01 | 86 | 1014.7 |
| 20260508152452 | 40 | 263 | 3.0 | 6.0 | 0.00 | 0.01 | 0.01 | 86 | 1014.6 |
| 20260508151948 | 39 | 289 | 3.0 | 4.0 | 0.00 | 0.01 | 0.01 | 87 | 1014.6 |
| 20260508151444 | 39 | 270 | 4.0 | 4.0 | 0.00 | 0.01 | 0.01 | 87 | 1014.5 |
| 20260508150941 | 39 | 207 | 2.0 | 3.0 | 0.00 | 0.01 | 0.01 | 88 | 1014.2 |
| 20260508150438 | 38 | 227 | 0.0 | 1.0 | 0.00 | 0.01 | 0.01 | 90 | 1014.2 |
| 20260508145933 | 38 | 262 | 1.0 | 4.0 | 0.00 | 0.01 | 0.01 | 89 | 1014.6 |
| 20260508145430 | 38 | 264 | 3.0 | 4.0 | 0.00 | 0.01 | 0.01 | 89 | 1014.6 |
| 20260508144927 | 38 | 221 | 2.0 | 3.0 | 0.00 | 0.01 | 0.01 | 90 | 1014.2 |
| 20260508144425 | 38 | 30 | 2.0 | 3.0 | 0.00 | 0.01 | 0.01 | 90 | 1014.1 |
| 20260508143922 | 38 | 248 | 3.0 | 4.0 | 0.00 | 0.01 | 0.01 | 90 | 1014.8 |
| 20260508143420 | 38 | 4 | 2.0 | 4.0 | 0.00 | 0.01 | 0.01 | 90 | 1014.6 |
| 20260508142916 | 38 | 272 | 3.0 | 8.0 | 0.00 | 0.01 | 0.01 | 89 | 1014.6 |
| 20260508142413 | 38 | 262 | 3.0 | 3.0 | 0.00 | 0.01 | 0.01 | 91 | 1014.4 |
| 20260508141909 | 38 | 271 | 0.0 | 2.0 | 0.00 | 0.01 | 0.01 | 90 | 1014.2 |
| 20260508141406 | 38 | 255 | 1.0 | 2.0 | 0.00 | 0.01 | 0.01 | 90 | 1014.2 |
| 20260508140904 | 38 | 257 | 2.0 | 4.0 | 0.00 | 0.01 | 0.01 | 89 | 1014.2 |
| 20260508140401 | 38 | 262 | 2.0 | 4.0 | 0.00 | 0.01 | 0.01 | 90 | 1014.3 |
| 20260508135856 | 38 | 282 | 1.0 | 2.0 | 0.00 | 0.01 | 0.01 | 89 | 1014.2 |
| 20260508135353 | 38 | 261 | 0.0 | 1.0 | 0.00 | 0.01 | 0.01 | 89 | 1014.2 |
| 20260508134849 | 38 | 283 | 1.0 | 2.0 | 0.00 | 0.01 | 0.01 | 89 | 1014.3 |
| 20260508134346 | 38 | 259 | 1.0 | 3.0 | 0.00 | 0.01 | 0.01 | 89 | 1014.4 |
| 20260508133842 | 38 | 287 | 0.0 | 1.0 | 0.00 | 0.01 | 0.01 | 89 | 1014.2 |
| 20260508133341 | 38 | 265 | 1.0 | 1.0 | 0.00 | 0.01 | 0.01 | 88 | 1014.4 |
| 20260508132837 | 39 | 291 | 0.0 | 0.0 | 0.00 | 0.01 | 0.01 | 88 | 1014.3 |
| 20260508132335 | 39 | 308 | 0.0 | 4.0 | 0.00 | 0.01 | 0.01 | 87 | 1014.2 |
| 20260508131832 | 39 | 274 | 3.0 | 4.0 | 0.00 | 0.01 | 0.01 | 87 | 1014.1 |
| 20260508131327 | 39 | 286 | 2.0 | 3.0 | 0.00 | 0.01 | 0.01 | 86 | 1014.2 |
| 20260508130824 | 39 | 268 | 4.0 | 6.0 | 0.00 | 0.01 | 0.01 | 85 | 1014.1 |
| 20260508130321 | 39 | 273 | 3.0 | 3.0 | 0.00 | 0.01 | 0.01 | 86 | 1014.1 |
| 20260508125817 | 39 | 265 | 3.0 | 3.0 | 0.00 | 0.01 | 0.01 | 86 | 1013.9 |
| 20260508125313 | 40 | 215 | 1.0 | 2.0 | 0.05 | 0.01 | 0.01 | 87 | 1013.8 |
| 20260508124811 | 40 | 190 | 0.0 | 2.0 | 0.05 | 0.01 | 0.01 | 83 | 1013.5 |
| 20260508124308 | 41 | 273 | 1.0 | 3.0 | 0.00 | 0.00 | 0.00 | 80 | 1013.8 |